Time;durP1;ratioP1;P1;durP2;ratioP2;P2;SDS_P1;SDS_P2;PMS_P1;PMS_P2;Temp;Humidity;BMP_temperature;BMP_pressure;BME280_temperature;BME280_humidity;BME280_pressure;Samples;Min_cycle;Max_cycle;Signal;HPM_P1;HPM_P2
2022/04/25 00:03:42;;;;;;;17.42;4.30;;;;;;;;;;10468474;28;20090;-68
2022/04/25 00:08:42;;;;;;;17.90;5.65;;;;;;;;;;10451746;28;20086;-70
2022/04/25 00:13:42;;;;;;;18.55;5.68;;;;;;;;;;10484765;28;20061;-69
2022/04/25 00:18:42;;;;;;;17.87;6.37;;;;;;;;;;10492806;28;20024;-69
2022/04/25 00:23:43;;;;;;;18.40;6.15;;;;;;;;;;10476002;28;20070;-71
2022/04/25 00:28:43;;;;;;;25.02;6.55;;;;;;;;;;10492502;28;20017;-71
2022/04/25 00:33:43;;;;;;;15.83;5.90;;;;;;;;;;10489700;28;20031;-70
2022/04/25 00:38:44;;;;;;;14.88;6.45;;;;;;;;;;10484207;28;20044;-71
2022/04/25 00:43:44;;;;;;;12.70;6.57;;;;;;;;;;10483992;28;20078;-71
2022/04/25 00:48:44;;;;;;;20.42;7.35;;;;;;;;;;10466509;28;20508;-69
2022/04/25 00:53:45;;;;;;;20.90;7.32;;;;;;;;;;10451262;28;20510;-69
2022/04/25 00:58:46;;;;;;;21.65;7.55;;;;;;;;;;10466669;28;20021;-72
2022/04/25 01:03:48;;;;;;;23.80;6.57;;;;;;;;;;10461649;28;20028;-68
2022/04/25 01:08:51;;;;;;;18.60;7.80;;;;;;;;;;10489610;28;20461;-74
2022/04/25 01:13:51;;;;;;;18.80;6.43;;;;;;;;;;10488853;28;20487;-69
2022/04/25 01:18:52;;;;;;;13.63;6.30;;;;;;;;;;10489068;28;20020;-69
2022/04/25 01:29:12;;;;;;;16.80;6.25;;;;;;;;;;10450129;28;20029;-76
2022/04/25 01:34:13;;;;;;;17.60;6.45;;;;;;;;;;10447802;28;20060;-73
2022/04/25 01:39:13;;;;;;;18.88;4.63;;;;;;;;;;10447512;28;20104;-68
2022/04/25 01:44:13;;;;;;;26.58;3.70;;;;;;;;;;10448313;28;20508;-76
2022/04/25 01:49:14;;;;;;;28.65;4.60;;;;;;;;;;10448843;28;20109;-69
2022/04/25 01:54:16;;;;;;;22.70;5.50;;;;;;;;;;10447955;28;20442;-68
2022/04/25 01:59:17;;;;;;;13.27;4.38;;;;;;;;;;10447646;28;20021;-70
2022/04/25 02:04:17;;;;;;;12.33;3.87;;;;;;;;;;10448288;28;20032;-71
2022/04/25 02:09:20;;;;;;;17.05;5.10;;;;;;;;;;10447289;28;20682;-70
2022/04/25 02:14:20;;;;;;;23.48;4.63;;;;;;;;;;10446686;28;20053;-69
2022/04/25 02:19:21;;;;;;;13.77;4.70;;;;;;;;;;10446625;28;20019;-70
2022/04/25 02:24:22;;;;;;;20.02;8.40;;;;;;;;;;10448030;28;20466;-72
2022/04/25 02:29:22;;;;;;;9.87;4.17;;;;;;;;;;10487475;28;20074;-69
2022/04/25 02:34:23;;;;;;;16.93;4.70;;;;;;;;;;10470706;28;20676;-69
2022/04/25 02:39:23;;;;;;;17.47;4.63;;;;;;;;;;10487606;28;20270;-73
2022/04/25 02:44:23;;;;;;;19.52;5.07;;;;;;;;;;10487532;28;20167;-69
2022/04/25 02:49:24;;;;;;;24.05;5.32;;;;;;;;;;10487129;28;20093;-69
2022/04/25 02:54:24;;;;;;;13.20;4.93;;;;;;;;;;10474015;28;20020;-69
2022/04/25 02:59:24;;;;;;;13.80;5.40;;;;;;;;;;10447066;28;20453;-71
2022/04/25 03:04:24;;;;;;;18.77;6.40;;;;;;;;;;10461853;28;20021;-77
2022/04/25 03:09:26;;;;;;;32.30;5.88;;;;;;;;;;10461922;28;20032;-70
2022/04/25 03:14:26;;;;;;;16.55;5.53;;;;;;;;;;10461829;28;20053;-69
2022/04/25 03:19:27;;;;;;;23.80;5.73;;;;;;;;;;10478860;28;20557;-70
2022/04/25 03:24:27;;;;;;;19.60;7.13;;;;;;;;;;10460971;28;20029;-74
2022/04/25 03:29:27;;;;;;;17.40;5.43;;;;;;;;;;10461581;28;20017;-68
2022/04/25 03:34:27;;;;;;;19.20;5.50;;;;;;;;;;10446145;28;20029;-73
2022/04/25 03:39:29;;;;;;;21.17;5.43;;;;;;;;;;10446213;28;20025;-70
2022/04/25 03:44:29;;;;;;;19.58;5.35;;;;;;;;;;10480967;28;20021;-70
2022/04/25 03:49:29;;;;;;;12.73;4.63;;;;;;;;;;10484129;28;20506;-70
2022/04/25 03:59:48;;;;;;;19.77;5.50;;;;;;;;;;10486870;28;20105;-69
2022/04/25 04:04:49;;;;;;;23.23;7.72;;;;;;;;;;10486895;28;20020;-71
2022/04/25 04:09:50;;;;;;;18.55;6.47;;;;;;;;;;10489980;28;20028;-70
2022/04/25 04:14:50;;;;;;;13.63;6.40;;;;;;;;;;10453972;28;20049;-70
2022/04/25 04:19:52;;;;;;;19.60;7.18;;;;;;;;;;10435106;28;20130;-69
2022/04/25 04:24:58;;;;;;;29.98;8.10;;;;;;;;;;10451307;28;20397;-71
2022/04/25 04:29:58;;;;;;;24.45;8.65;;;;;;;;;;10452245;28;20032;-69
2022/04/25 04:34:59;;;;;;;27.60;7.00;;;;;;;;;;10465497;28;20503;-70
2022/04/25 04:45:19;;;;;;;19.00;6.90;;;;;;;;;;10477919;28;20468;-68
2022/04/25 04:50:19;;;;;;;24.97;7.23;;;;;;;;;;10450771;28;20107;-69
2022/04/25 04:55:20;;;;;;;21.42;6.80;;;;;;;;;;10449798;28;20033;-68
2022/04/25 05:00:23;;;;;;;13.18;6.38;;;;;;;;;;10449730;28;20025;-72
2022/04/25 05:05:23;;;;;;;33.75;5.95;;;;;;;;;;10471150;28;20021;-76
2022/04/25 05:10:23;;;;;;;19.00;6.63;;;;;;;;;;10465559;28;20017;-72
2022/04/25 05:15:24;;;;;;;23.70;6.50;;;;;;;;;;10485691;28;20090;-71
2022/04/25 05:20:24;;;;;;;20.27;5.88;;;;;;;;;;10483892;28;20404;-75
2022/04/25 05:25:25;;;;;;;12.77;5.63;;;;;;;;;;10488621;28;20015;-71
2022/04/25 05:30:25;;;;;;;18.38;5.25;;;;;;;;;;10451269;28;20013;-72
2022/04/25 05:35:26;;;;;;;19.50;5.27;;;;;;;;;;10488425;28;20015;-74
2022/04/25 05:40:27;;;;;;;17.98;5.68;;;;;;;;;;10485576;28;20271;-75
2022/04/25 05:45:27;;;;;;;20.52;5.80;;;;;;;;;;10447278;28;20518;-71
2022/04/25 05:55:46;;;;;;;19.35;5.25;;;;;;;;;;10486658;28;20020;-72
2022/04/25 06:00:47;;;;;;;19.58;5.47;;;;;;;;;;10487403;28;20434;-73
2022/04/25 06:05:47;;;;;;;23.93;5.27;;;;;;;;;;10496235;28;20510;-70
2022/04/25 06:10:47;;;;;;;29.67;5.30;;;;;;;;;;10484966;28;20473;-77
2022/04/25 06:15:48;;;;;;;19.80;4.88;;;;;;;;;;10532899;27;20119;-72
2022/04/25 06:20:50;;;;;;;18.43;4.90;;;;;;;;;;10519473;27;20028;-73
2022/04/25 06:25:50;;;;;;;20.38;4.70;;;;;;;;;;10497870;28;20027;-73
2022/04/25 06:30:51;;;;;;;18.00;5.10;;;;;;;;;;10500051;28;20037;-75
2022/04/25 06:35:51;;;;;;;20.52;5.35;;;;;;;;;;10503442;28;20116;-74
2022/04/25 06:40:52;;;;;;;29.35;4.63;;;;;;;;;;10537202;27;20024;-75
2022/04/25 06:45:54;;;;;;;16.03;3.97;;;;;;;;;;10502537;28;20393;-76
2022/04/25 06:50:55;;;;;;;18.55;4.07;;;;;;;;;;10503299;28;20730;-79
2022/04/25 06:55:55;;;;;;;21.77;3.45;;;;;;;;;;10535413;27;20025;-78
2022/04/25 07:00:56;;;;;;;20.80;4.35;;;;;;;;;;10535067;27;20024;-74
2022/04/25 07:05:56;;;;;;;13.55;3.03;;;;;;;;;;10533692;28;20488;-74
2022/04/25 07:10:56;;;;;;;22.20;3.47;;;;;;;;;;10538153;28;20056;-75
2022/04/25 07:15:56;;;;;;;32.00;4.38;;;;;;;;;;10503888;28;20024;-74
2022/04/25 07:20:58;;;;;;;15.57;3.83;;;;;;;;;;10503262;28;20026;-79
2022/04/25 07:31:18;;;;;;;17.02;2.85;;;;;;;;;;10501011;28;20033;-75
2022/04/25 07:36:20;;;;;;;16.48;3.75;;;;;;;;;;10467459;28;20032;-71
2022/04/25 07:41:20;;;;;;;21.02;2.30;;;;;;;;;;10468014;28;20025;-70
2022/04/25 07:46:23;;;;;;;18.13;3.65;;;;;;;;;;10480077;28;20024;-71
2022/04/25 07:51:23;;;;;;;17.33;3.17;;;;;;;;;;10479106;28;20029;-70
2022/04/25 07:56:24;;;;;;;15.68;2.85;;;;;;;;;;10492658;28;20027;-72
2022/04/25 08:01:24;;;;;;;28.20;4.18;;;;;;;;;;10483805;28;20025;-74
2022/04/25 08:06:24;;;;;;;13.10;2.38;;;;;;;;;;10465512;28;20376;-77
2022/04/25 08:11:26;;;;;;;18.25;2.65;;;;;;;;;;10487957;28;20060;-75
2022/04/25 08:21:46;;;;;;;26.40;2.95;;;;;;;;;;10489277;28;20074;-78
2022/04/25 08:26:46;;;;;;;21.13;2.60;;;;;;;;;;10484815;28;20108;-72
2022/04/25 08:31:46;;;;;;;19.73;2.55;;;;;;;;;;10487383;28;20539;-76
2022/04/25 08:36:47;;;;;;;21.17;2.90;;;;;;;;;;10488846;28;20407;-72
2022/04/25 08:41:50;;;;;;;18.80;2.67;;;;;;;;;;10484603;28;20525;-73
2022/04/25 08:46:51;;;;;;;20.65;2.97;;;;;;;;;;10465524;28;20466;-75
2022/04/25 08:51:58;;;;;;;14.68;2.20;;;;;;;;;;10449306;28;20411;-71
2022/04/25 08:56:59;;;;;;;18.70;2.28;;;;;;;;;;10447756;28;20535;-78
2022/04/25 09:01:59;;;;;;;21.90;2.50;;;;;;;;;;10488852;28;20497;-72
2022/04/25 09:06:59;;;;;;;27.40;2.63;;;;;;;;;;10489435;28;20021;-76
2022/04/25 09:12:09;;;;;;;15.70;2.40;;;;;;;;;;10473209;28;20060;-71
2022/04/25 09:17:09;;;;;;;12.45;1.77;;;;;;;;;;10491346;28;20020;-76
2022/04/25 09:22:11;;;;;;;30.15;2.20;;;;;;;;;;10490159;28;20025;-80
2022/04/25 09:27:12;;;;;;;9.20;2.00;;;;;;;;;;10461495;28;20021;-72
2022/04/25 09:32:13;;;;;;;12.48;1.70;;;;;;;;;;10481317;28;20025;-77
2022/04/25 09:37:14;;;;;;;7.65;1.58;;;;;;;;;;10462384;28;20021;-75
2022/04/25 09:42:14;;;;;;;10.57;1.55;;;;;;;;;;10498198;28;20075;-81
2022/04/25 09:47:24;;;;;;;18.00;2.40;;;;;;;;;;10488878;28;20028;-76
2022/04/25 09:52:24;;;;;;;18.35;2.10;;;;;;;;;;10487917;28;20165;-72
2022/04/25 09:57:29;;;;;;;10.50;1.42;;;;;;;;;;10453351;28;20029;-75
2022/04/25 10:02:29;;;;;;;20.85;2.47;;;;;;;;;;10497754;28;20037;-78
2022/04/25 10:07:29;;;;;;;14.20;1.50;;;;;;;;;;10469292;28;20029;-78
2022/04/25 10:12:30;;;;;;;13.85;1.42;;;;;;;;;;10453593;28;20060;-74
2022/04/25 10:17:31;;;;;;;24.43;2.70;;;;;;;;;;10430003;28;20119;-75
2022/04/25 10:22:32;;;;;;;21.52;2.33;;;;;;;;;;10451943;28;20024;-77
2022/04/25 10:27:34;;;;;;;16.15;1.75;;;;;;;;;;10515684;28;20352;-74
2022/04/25 10:32:34;;;;;;;14.02;1.40;;;;;;;;;;10485608;28;20403;-77
2022/04/25 10:37:35;;;;;;;11.07;1.53;;;;;;;;;;10486929;28;20031;-71
2022/04/25 10:48:11;;;;;;;17.60;2.08;;;;;;;;;;10486460;28;20476;-77
2022/04/25 10:53:11;;;;;;;9.20;1.70;;;;;;;;;;10485643;28;20029;-76
2022/04/25 10:58:12;;;;;;;7.55;1.30;;;;;;;;;;10486829;28;20024;-76
2022/04/25 11:03:13;;;;;;;14.23;2.08;;;;;;;;;;10485345;28;20028;-71
2022/04/25 11:08:19;;;;;;;20.40;2.75;;;;;;;;;;10484233;28;20495;-71
2022/04/25 11:13:19;;;;;;;13.30;1.67;;;;;;;;;;10485715;28;20064;-76
2022/04/25 11:18:33;;;;;;;21.67;1.65;;;;;;;;;;10487714;28;20036;-75
2022/04/25 11:23:43;;;;;;;11.52;1.30;;;;;;;;;;10491945;28;20028;-76
2022/04/25 11:28:59;;;;;;;14.93;1.77;;;;;;;;;;10482732;28;20562;-76
2022/04/25 11:34:01;;;;;;;12.27;1.42;;;;;;;;;;10525990;28;20020;-71
2022/04/25 11:44:20;;;;;;;12.38;2.70;;;;;;;;;;10495335;28;20423;-67
2022/04/25 11:49:27;;;;;;;13.65;1.60;;;;;;;;;;10525484;28;20017;-66
2022/04/25 11:54:30;;;;;;;8.67;1.97;;;;;;;;;;10493117;28;20039;-71
2022/04/25 11:59:31;;;;;;;15.07;1.88;;;;;;;;;;10461232;28;20279;-76
2022/04/25 12:04:34;;;;;;;9.95;1.83;;;;;;;;;;10472772;28;20415;-72
2022/04/25 12:20:17;;;;;;;4.50;0.85;;;;;;;;;;10451717;28;20037;-73
2022/04/25 12:25:18;;;;;;;7.80;1.30;;;;;;;;;;10484188;28;20021;-72
2022/04/25 12:30:19;;;;;;;3.90;0.80;;;;;;;;;;10483336;28;20116;-71
2022/04/25 12:35:19;;;;;;;4.90;0.68;;;;;;;;;;10487618;28;20027;-71
2022/04/25 12:40:19;;;;;;;10.60;1.20;;;;;;;;;;10489989;28;20029;-69
2022/04/25 12:45:20;;;;;;;3.67;1.70;;;;;;;;;;10490480;28;20024;-70
2022/04/25 12:50:39;;;;;;;5.45;1.45;;;;;;;;;;10491113;28;20027;-71
2022/04/25 12:55:47;;;;;;;6.10;0.80;;;;;;;;;;10490085;28;20031;-75
2022/04/25 13:00:48;;;;;;;14.98;2.03;;;;;;;;;;10489325;28;20031;-73
2022/04/25 13:05:48;;;;;;;3.97;1.05;;;;;;;;;;10521543;28;20033;-74
2022/04/25 13:10:48;;;;;;;12.07;1.33;;;;;;;;;;10509549;28;20052;-71
2022/04/25 13:15:50;;;;;;;6.07;1.20;;;;;;;;;;10467464;28;20021;-71
2022/04/25 13:20:50;;;;;;;3.72;0.85;;;;;;;;;;10484034;28;20459;-71
2022/04/25 13:25:50;;;;;;;10.07;1.57;;;;;;;;;;10456233;28;20025;-70
2022/04/25 13:30:53;;;;;;;9.10;1.13;;;;;;;;;;10446261;28;20483;-70
2022/04/25 13:35:54;;;;;;;9.73;0.88;;;;;;;;;;10474148;28;20535;-71
2022/04/25 13:40:54;;;;;;;10.50;1.57;;;;;;;;;;10486303;28;20024;-72
2022/04/25 13:45:57;;;;;;;5.35;0.68;;;;;;;;;;10482704;28;20484;-69
2022/04/25 13:50:57;;;;;;;3.60;0.70;;;;;;;;;;10486028;28;20403;-73
2022/04/25 13:55:57;;;;;;;9.97;1.30;;;;;;;;;;10485965;28;20019;-75
2022/04/25 14:00:58;;;;;;;6.77;1.67;;;;;;;;;;10480146;28;20028;-71
2022/04/25 14:05:58;;;;;;;3.30;0.97;;;;;;;;;;10462993;28;20025;-71
2022/04/25 14:10:59;;;;;;;7.03;1.00;;;;;;;;;;10484327;28;20056;-71
2022/04/25 14:16:00;;;;;;;6.53;1.40;;;;;;;;;;10489843;28;20264;-74
2022/04/25 14:21:01;;;;;;;14.88;1.00;;;;;;;;;;10472884;28;20028;-73
2022/04/25 14:26:01;;;;;;;9.87;1.47;;;;;;;;;;10486751;28;20457;-76
2022/04/25 14:31:01;;;;;;;10.27;1.10;;;;;;;;;;10519939;28;20074;-74
2022/04/25 14:36:03;;;;;;;3.35;0.80;;;;;;;;;;10485919;28;20024;-70
2022/04/25 14:41:03;;;;;;;6.28;1.20;;;;;;;;;;10474720;28;20021;-70
2022/04/25 14:46:03;;;;;;;9.00;1.20;;;;;;;;;;10517282;28;20209;-76
2022/04/25 14:56:24;;;;;;;4.22;1.20;;;;;;;;;;10488023;28;20028;-73
2022/04/25 15:01:24;;;;;;;2.22;0.50;;;;;;;;;;10485833;28;20032;-70
2022/04/25 15:06:24;;;;;;;19.13;1.45;;;;;;;;;;10487090;28;20048;-71
2022/04/25 15:11:24;;;;;;;3.78;0.90;;;;;;;;;;10484855;28;20183;-70
2022/04/25 15:16:25;;;;;;;10.60;1.13;;;;;;;;;;10485791;23;20049;-70
2022/04/25 15:21:26;;;;;;;1.77;0.50;;;;;;;;;;10395177;28;20296;-74
2022/04/25 15:26:26;;;;;;;6.53;1.15;;;;;;;;;;10417969;28;20543;-72
2022/04/25 15:31:26;;;;;;;7.72;1.30;;;;;;;;;;10402655;28;20484;-73
2022/04/25 15:36:27;;;;;;;5.68;1.58;;;;;;;;;;10402448;28;20463;-72
2022/04/25 15:41:27;;;;;;;7.72;0.93;;;;;;;;;;10401798;28;20021;-71
2022/04/25 15:46:27;;;;;;;3.03;1.00;;;;;;;;;;10400849;28;20033;-73
2022/04/25 15:51:28;;;;;;;5.23;0.80;;;;;;;;;;10401747;28;20573;-71
2022/04/25 16:01:47;;;;;;;2.15;0.70;;;;;;;;;;10416200;28;20067;-71
2022/04/25 16:06:48;;;;;;;2.75;0.80;;;;;;;;;;10445272;28;20037;-71
2022/04/25 16:11:50;;;;;;;5.45;2.47;;;;;;;;;;10450628;28;20024;-71
2022/04/25 16:16:50;;;;;;;6.20;1.20;;;;;;;;;;10462155;28;20098;-71
2022/04/25 16:21:50;;;;;;;6.30;0.70;;;;;;;;;;10449555;28;20036;-71
2022/04/25 16:26:51;;;;;;;2.45;0.90;;;;;;;;;;10450412;28;20017;-72
2022/04/25 16:31:52;;;;;;;5.97;1.30;;;;;;;;;;10449497;28;20025;-71
2022/04/25 16:36:53;;;;;;;4.75;0.95;;;;;;;;;;10448970;28;20111;-71
2022/04/25 16:41:55;;;;;;;2.20;0.80;;;;;;;;;;10449891;28;20025;-71
2022/04/25 16:46:56;;;;;;;6.90;1.40;;;;;;;;;;10449159;28;20025;-72
2022/04/25 16:51:57;;;;;;;8.10;3.40;;;;;;;;;;10448584;28;20409;-71
2022/04/25 16:56:57;;;;;;;5.68;0.85;;;;;;;;;;10420707;28;20028;-71
2022/04/25 17:01:58;;;;;;;3.75;1.20;;;;;;;;;;10410944;28;20044;-71
2022/04/25 17:06:59;;;;;;;5.63;1.10;;;;;;;;;;10448048;28;20029;-71
2022/04/25 17:12:00;;;;;;;1.92;0.98;;;;;;;;;;10425866;28;20437;-74
2022/04/25 17:17:00;;;;;;;2.45;0.82;;;;;;;;;;10403202;28;20046;-71
2022/04/25 17:22:00;;;;;;;1.33;0.70;;;;;;;;;;10385529;28;20041;-71
2022/04/25 17:27:01;;;;;;;5.05;1.63;;;;;;;;;;10398664;28;20014;-75
